メインページ
METAR-TAF:

METAR-TAF

空港 :

ダカール, セネガル

レオポール・セダール・サンゴール国際空港

緯度: 14-44N, 経度: 017-30W, 海抜: 27m

現時点の気象観測

当レポートは34分前の14:00(UTC)に作成
北東の風 8kt
気温 24°C
湿度 47%
気圧 1012 hPa
視程: 4000m
広範な塵

METAR: GOOY 211400Z 04008KT 4000 DU NSC 24/12 Q1012

時間: 14:34 (14:34 UTC)

予報

当レポートは14分前の14:20(UTC)に作成
予報は21日の 14時(UTC)から 22日の 18時(UTC)まで有効
北東の風 12kt
視程: 4000m
広範な塵

TAF: GOOY 211420Z 2114/2218 04012KT 4000 DU NSC

4,000以上の空港の気象観測と天気予報(METAR報とTAF報)

利用可能な観測所は地図上に黄色い丸と赤い丸で示す。

丸の上にカーソルを重ねると観測所名を参照できる。

次にクリックすると気象観測と天気予報を参照できる。

マップの切り替え:黒色「×」印の緑ボタンをクリックして拡大、「-」印の緑ボタンをクリックして縮小、緑色の三角印をクリックして隣りの地図に切り替え


METAR-TAF: